Binger, Oklahoma
Current Conditions -  °F | °C
As of 11:55 AM on Saturday 25 Oct 2014 (Local Time) from KOJA Reporting Station
Clear Clear  
Wind Chill: 77°   Ceiling: Unl
Heat Index: 79°   Visibility: 10mi
Dew Point: 57°   Wind: 7mph
Humidity: 50%   Direction: 240°WSW
Pressure: 30.11"   Gusts: NA
Location:  35.31°N, 98.34°W
Report Text: KOJA 251655Z AUTO 24006KT 10SM CLR 25/14 A3011 RMK AO2
Loading
Personal Weather Stations






























Interactive Weather Map
Tropical Storm Tracking
New forecast layout! Learn more

10-Day Weather Forecast

Advertisements
Track Severe Weather on mobile